createdAt,value
2022-12-16T00:01:36.738Z,27.37
2022-12-16T00:04:04.744Z,26.63
2022-12-16T00:06:34.788Z,27.10
2022-12-16T00:09:04.029Z,26.70
2022-12-16T00:11:32.702Z,25.43
2022-12-16T00:14:00.547Z,26.37
2022-12-16T00:16:28.656Z,26.50
2022-12-16T00:18:56.444Z,25.80
2022-12-16T00:21:28.638Z,26.73
2022-12-16T00:23:56.960Z,25.80
2022-12-16T00:26:26.169Z,27.27
2022-12-16T00:28:53.927Z,28.17
2022-12-16T00:31:22.693Z,27.00
2022-12-16T00:33:50.500Z,26.57
2022-12-16T00:36:18.312Z,26.43
2022-12-16T00:38:46.070Z,27.43
2022-12-16T00:41:13.823Z,26.03
2022-12-16T00:43:42.924Z,27.67
2022-12-16T00:46:10.688Z,27.10
2022-12-16T00:48:38.458Z,26.63
2022-12-16T00:51:07.085Z,26.13
2022-12-16T00:53:35.910Z,26.50
2022-12-16T00:56:05.090Z,26.20
2022-12-16T00:58:32.952Z,27.63
2022-12-16T01:01:02.421Z,26.73
2022-12-16T01:03:30.348Z,25.33
2022-12-16T01:05:58.407Z,26.90
2022-12-16T01:08:26.316Z,25.70
2022-12-16T01:10:56.673Z,24.33
2022-12-16T01:13:25.625Z,24.53
2022-12-16T01:15:53.396Z,24.87
2022-12-16T01:18:22.804Z,25.07
2022-12-16T01:20:50.505Z,25.77
2022-12-16T01:23:18.307Z,26.20
2022-12-16T01:25:46.054Z,24.30
2022-12-16T01:28:13.833Z,25.57
2022-12-16T01:30:41.620Z,24.80
2022-12-16T01:33:10.756Z,24.63
2022-12-16T01:35:56.280Z,24.00
2022-12-16T01:38:24.620Z,22.73
2022-12-16T01:40:52.615Z,23.53
2022-12-16T01:43:26.720Z,23.63
2022-12-16T01:45:59.039Z,23.20
2022-12-16T01:48:38.614Z,25.10
2022-12-16T01:51:12.980Z,24.00
2022-12-16T01:56:32.886Z,23.20
2022-12-16T01:59:01.603Z,23.77
2022-12-16T02:01:30.114Z,23.70
2022-12-16T02:04:01.725Z,24.03
2022-12-16T02:06:31.204Z,23.93
2022-12-16T02:09:01.975Z,22.80
2022-12-16T02:15:09.351Z,23.80
2022-12-16T02:17:46.341Z,24.40
2022-12-16T02:20:47.143Z,22.97
2022-12-16T02:23:35.985Z,24.03
2022-12-16T02:26:29.287Z,23.97
2022-12-16T02:29:19.390Z,24.50
2022-12-16T02:31:55.264Z,24.27
2022-12-16T02:34:31.597Z,24.07
2022-12-16T02:37:12.121Z,23.63
2022-12-16T02:39:45.773Z,24.17
2022-12-16T02:42:18.834Z,24.80
2022-12-16T02:47:41.259Z,24.03
2022-12-16T02:50:19.664Z,23.20
2022-12-16T02:52:47.736Z,25.03
2022-12-16T02:55:16.096Z,23.60
2022-12-16T02:58:07.680Z,24.13
2022-12-16T03:03:38.112Z,23.93
2022-12-16T03:06:07.093Z,23.20
2022-12-16T03:08:38.845Z,24.30
2022-12-16T03:11:08.192Z,23.63
2022-12-16T03:13:40.507Z,23.77
2022-12-16T03:16:12.047Z,25.17
2022-12-16T03:21:35.445Z,23.37
2022-12-16T03:24:07.021Z,24.97
2022-12-16T03:26:40.162Z,23.27
2022-12-16T03:29:12.936Z,23.70
2022-12-16T03:31:45.448Z,23.60
2022-12-16T03:37:10.534Z,23.10
2022-12-16T03:39:43.717Z,21.33
2022-12-16T03:42:14.987Z,23.37
2022-12-16T03:44:44.407Z,22.43
2022-12-16T03:47:14.956Z,23.50
2022-12-16T03:49:47.506Z,24.40
2022-12-16T03:55:00.402Z,24.00
2022-12-16T03:57:28.180Z,21.43
2022-12-16T03:59:55.857Z,23.40
2022-12-16T04:02:23.768Z,22.50
2022-12-16T04:04:52.965Z,23.70
2022-12-16T04:10:10.319Z,22.47
2022-12-16T04:12:55.331Z,22.63
2022-12-16T04:15:40.667Z,21.37
2022-12-16T04:18:33.623Z,21.93
2022-12-16T04:21:21.277Z,21.87
2022-12-16T04:24:10.249Z,21.60
2022-12-16T04:26:59.529Z,21.37
2022-12-16T04:29:27.274Z,22.37
2022-12-16T04:31:55.172Z,21.27
2022-12-16T04:34:29.338Z,21.37
2022-12-16T04:37:17.841Z,21.50
2022-12-16T04:40:03.399Z,22.10
2022-12-16T04:45:51.968Z,21.60
2022-12-16T04:48:37.109Z,22.23
2022-12-16T04:51:22.390Z,22.63
2022-12-16T04:54:14.228Z,22.80
2022-12-16T04:56:59.737Z,22.60
2022-12-16T05:00:00.524Z,24.00
2022-12-16T05:02:45.798Z,22.30
2022-12-16T05:05:30.945Z,20.83
2022-12-16T05:08:30.876Z,21.50
2022-12-16T05:11:17.513Z,22.13
2022-12-16T05:14:02.829Z,22.20
2022-12-16T05:16:48.285Z,22.73
2022-12-16T05:19:33.680Z,21.93
2022-12-16T05:22:18.820Z,21.70
2022-12-16T05:25:04.119Z,22.27
2022-12-16T05:27:50.858Z,22.83
2022-12-16T05:33:38.976Z,21.87
2022-12-16T05:36:24.409Z,20.83
2022-12-16T05:39:10.492Z,22.60
2022-12-16T05:41:55.828Z,21.37
2022-12-16T05:44:42.889Z,22.17
2022-12-16T05:47:29.008Z,21.43
2022-12-16T05:50:14.202Z,23.00
2022-12-16T05:53:00.081Z,22.17
2022-12-16T05:55:45.356Z,22.20
2022-12-16T05:58:30.890Z,23.13
2022-12-16T06:01:17.428Z,21.67
2022-12-16T06:04:02.879Z,21.80
2022-12-16T06:06:48.166Z,21.33
2022-12-16T06:09:33.261Z,22.20
2022-12-16T06:12:18.403Z,21.87
2022-12-16T06:15:03.850Z,23.70
2022-12-16T06:17:50.295Z,21.60
2022-12-16T06:20:35.445Z,21.47
2022-12-16T06:23:24.108Z,22.73
2022-12-16T06:26:10.718Z,22.40
2022-12-16T06:28:55.981Z,21.47
2022-12-16T06:31:41.427Z,22.53
2022-12-16T06:34:28.001Z,22.60
2022-12-16T06:37:13.295Z,22.87
2022-12-16T06:39:58.405Z,23.03
2022-12-16T06:42:43.739Z,23.37
2022-12-16T06:45:34.315Z,29.13
2022-12-16T06:48:19.920Z,23.53
2022-12-16T06:51:06.702Z,22.53
2022-12-16T06:53:51.707Z,22.07
2022-12-16T06:56:37.030Z,22.33
2022-12-16T06:59:22.497Z,22.10
2022-12-16T07:02:07.539Z,22.93
2022-12-16T07:04:52.592Z,22.40
2022-12-16T07:07:39.213Z,23.27
2022-12-16T07:10:25.281Z,21.70
2022-12-16T07:13:10.634Z,22.17
2022-12-16T07:15:56.094Z,22.77
2022-12-16T07:18:41.141Z,21.97
2022-12-16T07:21:26.232Z,22.00
2022-12-16T07:24:12.797Z,22.87
2022-12-16T07:26:58.138Z,20.80
2022-12-16T07:29:43.286Z,22.33
2022-12-16T07:32:28.701Z,21.10
2022-12-16T07:35:13.772Z,21.70
2022-12-16T07:37:59.371Z,20.87
2022-12-16T07:40:46.208Z,22.00
2022-12-16T07:43:31.694Z,23.13
2022-12-16T07:46:17.227Z,22.10
2022-12-16T07:49:07.740Z,22.90
2022-12-16T07:51:53.085Z,23.27
2022-12-16T07:54:38.380Z,22.37
2022-12-16T07:57:25.173Z,22.77
2022-12-16T08:00:10.598Z,22.90
2022-12-16T08:02:58.945Z,21.97
2022-12-16T08:05:44.121Z,23.67
2022-12-16T08:08:29.483Z,23.57
2022-12-16T08:11:14.790Z,22.47
2022-12-16T08:14:01.340Z,22.93
2022-12-16T08:16:46.753Z,23.67
2022-12-16T08:19:31.949Z,23.30
2022-12-16T08:22:28.526Z,23.00
2022-12-16T08:25:13.774Z,23.77
2022-12-16T08:27:59.158Z,22.77
2022-12-16T08:30:45.838Z,24.27
2022-12-16T08:33:31.093Z,21.30
2022-12-16T08:36:31.602Z,24.00
2022-12-16T08:39:22.188Z,22.37
2022-12-16T08:42:07.137Z,22.63
2022-12-16T08:44:52.469Z,22.90
2022-12-16T08:47:39.528Z,22.87
2022-12-16T08:50:25.779Z,21.97
2022-12-16T08:53:10.984Z,20.87
2022-12-16T08:55:56.406Z,21.00
2022-12-16T08:58:53.315Z,20.80
2022-12-16T09:01:41.161Z,20.47
2022-12-16T09:04:27.949Z,21.10
2022-12-16T09:07:13.129Z,20.93
2022-12-16T09:09:58.215Z,21.93
2022-12-16T09:12:43.642Z,21.30
2022-12-16T09:15:29.047Z,21.63
2022-12-16T09:18:11.542Z,23.73
2022-12-16T09:20:58.277Z,21.67
2022-12-16T09:23:43.669Z,22.80
2022-12-16T09:26:29.216Z,22.67
2022-12-16T09:29:14.329Z,22.50
2022-12-16T09:31:59.667Z,23.40
2022-12-16T09:34:44.748Z,23.67
2022-12-16T09:37:31.603Z,25.23
2022-12-16T09:40:16.781Z,27.50
2022-12-16T09:43:08.733Z,25.87
2022-12-16T09:46:02.832Z,26.47
2022-12-16T09:48:54.088Z,27.00
2022-12-16T09:51:39.973Z,27.50
2022-12-16T09:54:30.538Z,27.30
2022-12-16T09:57:18.356Z,27.43
2022-12-16T10:00:08.446Z,26.83
2022-12-16T10:02:54.169Z,26.87
2022-12-16T10:05:54.896Z,27.23
2022-12-16T10:08:47.867Z,27.33
2022-12-16T10:11:40.989Z,26.30
2022-12-16T10:14:31.642Z,28.13
2022-12-16T10:17:27.569Z,26.07
2022-12-16T10:20:19.764Z,26.40
2022-12-16T10:23:15.816Z,27.93
2022-12-16T10:26:08.417Z,28.37
2022-12-16T10:29:03.663Z,27.63
2022-12-16T10:31:49.708Z,27.93
2022-12-16T10:34:38.794Z,29.23
2022-12-16T10:37:23.960Z,28.00
2022-12-16T10:40:16.447Z,28.90
2022-12-16T10:43:08.130Z,27.57
2022-12-16T10:46:00.399Z,30.30
2022-12-16T10:48:54.974Z,28.80
2022-12-16T10:51:39.809Z,28.47
2022-12-16T10:54:46.812Z,30.20
2022-12-16T10:57:37.603Z,29.63
2022-12-16T11:00:32.104Z,28.83
2022-12-16T11:03:36.163Z,28.90
2022-12-16T11:06:22.101Z,28.53
2022-12-16T11:09:07.523Z,27.93
2022-12-16T11:11:52.825Z,29.50
2022-12-16T11:14:59.502Z,28.70
2022-12-16T11:17:45.490Z,31.20
2022-12-16T11:20:35.273Z,28.03
2022-12-16T11:23:38.385Z,29.13
2022-12-16T11:26:27.747Z,30.23
2022-12-16T11:29:30.770Z,28.40
2022-12-16T11:32:20.392Z,29.37
2022-12-16T11:35:11.560Z,31.33
2022-12-16T11:38:00.445Z,30.27
2022-12-16T11:40:47.943Z,29.50
2022-12-16T11:43:36.083Z,31.07
2022-12-16T11:46:28.054Z,28.53
2022-12-16T11:49:23.424Z,27.80
2022-12-16T11:52:35.867Z,29.40
2022-12-16T11:55:56.058Z,26.83
2022-12-16T11:58:42.445Z,28.90
2022-12-16T12:01:34.227Z,29.33
2022-12-16T12:04:19.497Z,27.87
2022-12-16T12:07:22.285Z,28.77
2022-12-16T12:10:16.495Z,28.23
2022-12-16T12:13:08.458Z,30.20
2022-12-16T12:16:02.213Z,29.20
2022-12-16T12:19:01.512Z,28.70
2022-12-16T12:21:53.987Z,29.03
2022-12-16T12:24:56.279Z,29.73
2022-12-16T12:27:49.649Z,29.30
2022-12-16T12:30:44.247Z,29.40
2022-12-16T12:33:45.191Z,29.10
2022-12-16T12:36:38.268Z,30.43
2022-12-16T12:39:36.516Z,28.47
2022-12-16T12:42:35.193Z,30.57
2022-12-16T12:45:42.023Z,29.53
2022-12-16T12:48:33.671Z,29.70
2022-12-16T12:51:26.219Z,33.07
2022-12-16T12:54:21.926Z,32.50
2022-12-16T12:57:10.351Z,32.63
2022-12-16T13:00:08.186Z,31.63
2022-12-16T13:03:06.974Z,32.43
2022-12-16T13:05:55.670Z,32.00
2022-12-16T13:08:57.918Z,32.83
2022-12-16T13:11:43.429Z,31.53
2022-12-16T13:15:02.720Z,31.90
2022-12-16T13:17:47.866Z,29.93
2022-12-16T13:20:56.713Z,29.10
2022-12-16T13:23:51.514Z,29.70
2022-12-16T13:26:38.799Z,28.90
2022-12-16T13:29:36.112Z,28.43
2022-12-16T13:32:41.750Z,27.87
2022-12-16T13:35:45.620Z,28.47
2022-12-16T13:38:40.718Z,33.40
2022-12-16T13:42:01.045Z,31.60
2022-12-16T13:45:14.254Z,31.40
2022-12-16T13:48:18.646Z,33.67
2022-12-16T13:51:18.928Z,35.00
2022-12-16T13:54:10.311Z,36.20
2022-12-16T13:57:03.888Z,37.47
2022-12-16T13:59:51.168Z,36.43
2022-12-16T14:02:44.875Z,37.07
2022-12-16T14:05:38.356Z,34.53
2022-12-16T14:08:29.875Z,37.47
2022-12-16T14:11:19.884Z,33.83
2022-12-16T14:14:15.681Z,33.73
2022-12-16T14:17:09.447Z,33.93
2022-12-16T14:20:10.481Z,34.00
2022-12-16T14:23:32.474Z,36.17
2022-12-16T14:26:22.315Z,32.93
2022-12-16T14:29:07.196Z,32.67
2022-12-16T14:31:56.193Z,33.23
2022-12-16T14:34:45.851Z,31.93
2022-12-16T14:37:32.845Z,34.53
2022-12-16T14:40:18.564Z,33.37
2022-12-16T14:43:12.987Z,33.00
2022-12-16T14:46:06.227Z,30.37
2022-12-16T14:48:55.289Z,31.17
2022-12-16T14:51:46.100Z,30.60
2022-12-16T14:54:45.866Z,32.43
2022-12-16T14:57:36.299Z,31.30
2022-12-16T15:00:32.241Z,29.23
2022-12-16T15:03:24.120Z,30.20
2022-12-16T15:06:11.189Z,28.90
2022-12-16T15:09:10.276Z,28.93
2022-12-16T15:11:57.462Z,28.87
2022-12-16T15:14:45.538Z,27.00
2022-12-16T15:17:39.431Z,28.33
2022-12-16T15:20:35.727Z,30.07
2022-12-16T15:23:21.151Z,32.90
2022-12-16T15:26:13.739Z,30.27
2022-12-16T15:29:01.509Z,30.73
2022-12-16T15:31:51.635Z,29.33
2022-12-16T15:34:47.884Z,29.40
2022-12-16T15:37:39.850Z,28.47
2022-12-16T15:40:38.865Z,27.17
2022-12-16T15:43:24.346Z,27.13
2022-12-16T15:46:10.717Z,27.17
2022-12-16T15:48:56.213Z,27.03
2022-12-16T15:51:48.645Z,27.10
2022-12-16T15:54:36.573Z,26.80
2022-12-16T15:57:22.435Z,27.03
2022-12-16T16:00:14.934Z,27.83
2022-12-16T16:03:06.077Z,31.63
2022-12-16T16:05:54.112Z,30.13
2022-12-16T16:08:40.764Z,29.73
2022-12-16T16:11:26.805Z,32.90
2022-12-16T16:14:14.318Z,31.97
2022-12-16T16:16:59.763Z,30.40
2022-12-16T16:19:46.003Z,30.80
2022-12-16T16:22:33.136Z,27.37
2022-12-16T16:25:20.027Z,23.63
2022-12-16T16:28:05.512Z,27.47
2022-12-16T16:30:50.755Z,27.90
2022-12-16T16:33:36.115Z,28.50
2022-12-16T16:36:32.053Z,27.80
2022-12-16T16:39:17.443Z,24.13
2022-12-16T16:42:04.300Z,24.67
2022-12-16T16:44:49.698Z,23.63
2022-12-16T16:47:36.098Z,21.10
2022-12-16T16:50:21.642Z,19.47
2022-12-16T16:53:07.044Z,18.77
2022-12-16T16:55:52.161Z,21.13
2022-12-16T16:58:44.372Z,19.90
2022-12-16T17:01:31.722Z,20.00
2022-12-16T17:04:17.082Z,20.80
2022-12-16T17:07:01.566Z,20.30
2022-12-16T17:09:46.689Z,21.63
2022-12-16T17:12:37.476Z,20.47
2022-12-16T17:15:45.739Z,20.30
2022-12-16T17:18:30.849Z,19.10
2022-12-16T17:21:16.085Z,20.77
2022-12-16T17:24:01.130Z,20.43
2022-12-16T17:26:46.591Z,19.53
2022-12-16T17:29:40.891Z,19.67
2022-12-16T17:32:36.139Z,18.83
2022-12-16T17:35:21.583Z,19.83
2022-12-16T17:38:07.129Z,20.27
2022-12-16T17:40:52.475Z,18.93
2022-12-16T17:43:40.856Z,19.20
2022-12-16T17:46:30.036Z,20.60
2022-12-16T17:49:17.480Z,19.90
2022-12-16T17:52:03.296Z,22.20
2022-12-16T17:54:48.475Z,21.50
2022-12-16T17:57:33.966Z,21.73
2022-12-16T18:00:19.421Z,22.20
2022-12-16T18:03:05.035Z,21.63
2022-12-16T18:05:51.895Z,22.67
2022-12-16T18:08:37.357Z,21.60
2022-12-16T18:11:22.595Z,23.10
2022-12-16T18:14:07.659Z,22.33
2022-12-16T18:16:52.737Z,21.17
2022-12-16T18:19:38.116Z,24.33
2022-12-16T18:22:24.770Z,23.90
2022-12-16T18:25:10.192Z,25.67
2022-12-16T18:27:55.809Z,26.60
2022-12-16T18:30:41.144Z,27.17
2022-12-16T18:33:26.995Z,26.77
2022-12-16T18:36:12.535Z,27.00
2022-12-16T18:38:59.416Z,27.07
2022-12-16T18:41:44.771Z,27.73
2022-12-16T18:44:32.265Z,26.57
2022-12-16T18:47:18.218Z,27.77
2022-12-16T18:50:03.694Z,25.67
2022-12-16T18:52:48.881Z,27.53
2022-12-16T18:55:35.489Z,25.83
2022-12-16T18:58:49.742Z,27.17
2022-12-16T19:01:28.164Z,26.17
2022-12-16T19:04:14.465Z,28.43
2022-12-16T19:07:00.044Z,27.17
2022-12-16T19:09:45.536Z,27.23
2022-12-16T19:12:32.000Z,28.63
2022-12-16T19:15:17.399Z,27.50
2022-12-16T19:18:02.904Z,24.47
2022-12-16T19:20:47.833Z,23.43
2022-12-16T19:23:33.920Z,23.20
2022-12-16T19:26:25.750Z,22.40
2022-12-16T19:29:12.563Z,24.70
2022-12-16T19:31:57.869Z,23.90
2022-12-16T19:34:51.511Z,28.83
2022-12-16T19:37:37.050Z,28.93
2022-12-16T19:40:22.449Z,29.83
2022-12-16T19:43:07.965Z,29.70
2022-12-16T19:48:59.878Z,28.83
2022-12-16T19:51:45.515Z,28.63
2022-12-16T19:54:31.196Z,26.70
2022-12-16T19:57:16.740Z,27.90
2022-12-16T20:00:01.850Z,27.30
2022-12-16T20:02:58.235Z,26.90
2022-12-16T20:05:43.456Z,27.77
2022-12-16T20:08:28.721Z,26.33
2022-12-16T20:11:13.998Z,24.80
2022-12-16T20:13:59.148Z,27.37
2022-12-16T20:16:45.914Z,27.43
2022-12-16T20:19:32.234Z,25.77
2022-12-16T20:22:17.558Z,27.93
2022-12-16T20:25:02.751Z,28.30
2022-12-16T20:27:47.867Z,27.03
2022-12-16T20:30:33.355Z,28.13
2022-12-16T20:33:18.824Z,26.73
2022-12-16T20:36:15.303Z,27.83
2022-12-16T20:38:56.965Z,29.27
2022-12-16T20:41:42.496Z,27.13
2022-12-16T20:44:30.284Z,28.47
2022-12-16T20:47:15.664Z,30.13
2022-12-16T20:50:01.107Z,28.50
2022-12-16T20:52:47.524Z,30.17
2022-12-16T20:55:33.299Z,29.43
2022-12-16T20:58:18.605Z,29.27
2022-12-16T21:01:03.781Z,29.10
2022-12-16T21:03:49.027Z,29.40
2022-12-16T21:06:34.369Z,29.43
2022-12-16T21:09:20.966Z,29.13
2022-12-16T21:12:06.022Z,30.53
2022-12-16T21:14:51.655Z,31.63
2022-12-16T21:17:37.054Z,31.63
2022-12-16T21:20:22.908Z,31.73
2022-12-16T21:23:15.178Z,32.00
2022-12-16T21:26:01.914Z,30.70
2022-12-16T21:28:46.989Z,32.60
2022-12-16T21:31:32.448Z,30.47
2022-12-16T21:34:17.567Z,32.20
2022-12-16T21:37:02.843Z,31.07
2022-12-16T21:39:48.073Z,30.03
2022-12-16T21:42:36.732Z,30.90
2022-12-16T21:45:23.750Z,31.70
2022-12-16T21:48:11.572Z,30.63
2022-12-16T21:50:56.998Z,31.30
2022-12-16T21:53:42.781Z,29.53
2022-12-16T21:56:28.289Z,30.63
2022-12-16T21:59:14.634Z,31.20
2022-12-16T22:01:59.763Z,31.20
2022-12-16T22:04:45.013Z,30.33
2022-12-16T22:07:30.446Z,31.13
2022-12-16T22:10:15.878Z,31.07
2022-12-16T22:13:01.175Z,32.40
2022-12-16T22:15:47.682Z,32.77
2022-12-16T22:18:35.041Z,31.33
2022-12-16T22:21:23.187Z,30.77
2022-12-16T22:24:09.081Z,31.73
2022-12-16T22:26:54.864Z,33.43
2022-12-16T22:29:41.673Z,33.23
2022-12-16T22:32:28.439Z,32.83
2022-12-16T22:35:13.905Z,34.07
2022-12-16T22:36:20.247Z,30.70
2022-12-16T22:37:59.069Z,31.63
2022-12-16T22:40:40.701Z,32.10
2022-12-16T22:43:25.816Z,34.07
2022-12-16T22:46:17.096Z,34.07
2022-12-16T22:49:04.461Z,33.90
2022-12-16T22:51:49.630Z,34.87
2022-12-16T22:54:43.051Z,34.00
2022-12-16T22:57:28.153Z,33.17
2022-12-16T23:00:13.268Z,30.67
2022-12-16T23:02:58.412Z,29.77
2022-12-16T23:05:44.890Z,27.43
2022-12-16T23:08:30.090Z,26.93
2022-12-16T23:11:16.806Z,26.57
2022-12-16T23:14:02.277Z,24.50
2022-12-16T23:16:47.821Z,25.67
2022-12-16T23:19:33.372Z,23.77
2022-12-16T23:22:19.758Z,22.77
2022-12-16T23:25:05.126Z,22.23
2022-12-16T23:27:50.350Z,24.63
2022-12-16T23:30:35.670Z,22.80
2022-12-16T23:33:21.666Z,20.67
2022-12-16T23:36:06.986Z,23.23
2022-12-16T23:38:53.467Z,22.80
2022-12-16T23:41:38.714Z,24.40
2022-12-16T23:44:29.369Z,23.20
2022-12-16T23:47:14.838Z,21.93
2022-12-16T23:50:00.165Z,23.10
2022-12-16T23:52:45.500Z,23.90
2022-12-16T23:55:32.081Z,24.80
2022-12-16T23:58:17.901Z,25.03
